sensor_id;sensor_type;location;lat;lon;timestamp;pressure;altitude;pressure_sealevel;temperature;humidity
24336;BME280;33098;52.400;16.880;2023-07-29T00:02:26;100051.79;;;19.28;100.00
24336;BME280;33098;52.400;16.880;2023-07-29T00:04:56;100053.23;;;19.18;100.00
24336;BME280;33098;52.400;16.880;2023-07-29T00:07:23;100052.77;;;19.11;100.00
24336;BME280;33098;52.400;16.880;2023-07-29T00:09:50;100055.05;;;19.12;100.00
24336;BME280;33098;52.400;16.880;2023-07-29T00:12:17;100057.88;;;19.09;100.00
24336;BME280;33098;52.400;16.880;2023-07-29T00:14:43;100055.31;;;19.02;100.00
24336;BME280;33098;52.400;16.880;2023-07-29T00:17:10;100058.49;;;18.94;100.00
24336;BME280;33098;52.400;16.880;2023-07-29T00:19:36;100054.52;;;18.88;100.00
24336;BME280;33098;52.400;16.880;2023-07-29T00:22:05;100059.38;;;18.89;100.00
24336;BME280;33098;52.400;16.880;2023-07-29T00:24:35;100063.38;;;18.87;100.00
24336;BME280;33098;52.400;16.880;2023-07-29T00:27:01;100062.52;;;18.84;100.00
24336;BME280;33098;52.400;16.880;2023-07-29T00:29:31;100060.36;;;18.81;100.00
24336;BME280;33098;52.400;16.880;2023-07-29T00:31:58;100057.59;;;18.78;100.00
24336;BME280;33098;52.400;16.880;2023-07-29T00:34:24;100056.89;;;18.77;100.00
24336;BME280;33098;52.400;16.880;2023-07-29T00:36:51;100047.45;;;18.77;100.00
24336;BME280;33098;52.400;16.880;2023-07-29T00:39:19;100045.20;;;18.72;100.00
24336;BME280;33098;52.400;16.880;2023-07-29T00:41:46;100049.64;;;18.70;100.00
24336;BME280;33098;52.400;16.880;2023-07-29T00:44:13;100052.20;;;18.74;100.00
24336;BME280;33098;52.400;16.880;2023-07-29T00:46:40;100048.91;;;18.73;100.00
24336;BME280;33098;52.400;16.880;2023-07-29T00:49:08;100050.27;;;18.64;100.00
24336;BME280;33098;52.400;16.880;2023-07-29T00:51:35;100049.69;;;18.51;100.00
24336;BME280;33098;52.400;16.880;2023-07-29T00:54:02;100052.98;;;18.44;100.00
24336;BME280;33098;52.400;16.880;2023-07-29T00:56:29;100049.73;;;18.49;100.00
24336;BME280;33098;52.400;16.880;2023-07-29T00:58:55;100048.80;;;18.56;100.00
24336;BME280;33098;52.400;16.880;2023-07-29T01:01:26;100047.90;;;18.56;100.00
24336;BME280;33098;52.400;16.880;2023-07-29T01:03:56;100045.58;;;18.48;100.00
24336;BME280;33098;52.400;16.880;2023-07-29T01:07:03;100050.00;;;18.38;100.00
24336;BME280;33098;52.400;16.880;2023-07-29T01:12:51;100049.40;;;18.38;100.00
24336;BME280;33098;52.400;16.880;2023-07-29T01:18:31;100045.45;;;18.30;100.00
24336;BME280;33098;52.400;16.880;2023-07-29T01:21:08;100051.13;;;18.21;100.00
24336;BME280;33098;52.400;16.880;2023-07-29T01:23:35;100050.05;;;18.21;100.00
24336;BME280;33098;52.400;16.880;2023-07-29T01:26:03;100047.36;;;18.19;100.00
24336;BME280;33098;52.400;16.880;2023-07-29T01:28:31;100052.69;;;18.20;100.00
24336;BME280;33098;52.400;16.880;2023-07-29T01:31:10;100045.73;;;18.24;100.00
24336;BME280;33098;52.400;16.880;2023-07-29T01:34:13;100049.45;;;18.29;100.00
24336;BME280;33098;52.400;16.880;2023-07-29T01:36:42;100043.55;;;18.25;100.00
24336;BME280;33098;52.400;16.880;2023-07-29T01:39:16;100042.94;;;18.25;100.00
24336;BME280;33098;52.400;16.880;2023-07-29T01:41:45;100046.08;;;18.25;100.00
24336;BME280;33098;52.400;16.880;2023-07-29T01:44:15;100050.47;;;18.18;100.00
24336;BME280;33098;52.400;16.880;2023-07-29T01:46:44;100050.65;;;18.12;100.00
24336;BME280;33098;52.400;16.880;2023-07-29T01:49:14;100055.52;;;18.09;100.00
24336;BME280;33098;52.400;16.880;2023-07-29T01:51:43;100054.19;;;18.02;100.00
24336;BME280;33098;52.400;16.880;2023-07-29T01:54:10;100054.27;;;17.96;100.00
24336;BME280;33098;52.400;16.880;2023-07-29T01:56:36;100051.48;;;17.94;100.00
24336;BME280;33098;52.400;16.880;2023-07-29T01:59:03;100052.39;;;17.85;100.00
24336;BME280;33098;52.400;16.880;2023-07-29T02:01:30;100052.57;;;17.72;100.00
24336;BME280;33098;52.400;16.880;2023-07-29T02:03:59;100049.27;;;17.67;100.00
24336;BME280;33098;52.400;16.880;2023-07-29T02:06:28;100049.48;;;17.66;100.00
24336;BME280;33098;52.400;16.880;2023-07-29T02:08:58;100049.44;;;17.66;100.00
24336;BME280;33098;52.400;16.880;2023-07-29T02:11:26;100054.52;;;17.69;100.00
24336;BME280;33098;52.400;16.880;2023-07-29T02:13:56;100046.64;;;17.67;100.00
24336;BME280;33098;52.400;16.880;2023-07-29T02:16:24;100046.43;;;17.61;100.00
24336;BME280;33098;52.400;16.880;2023-07-29T02:18:50;100048.42;;;17.55;100.00
24336;BME280;33098;52.400;16.880;2023-07-29T02:21:17;100046.70;;;17.56;100.00
24336;BME280;33098;52.400;16.880;2023-07-29T02:23:46;100051.91;;;17.56;100.00
24336;BME280;33098;52.400;16.880;2023-07-29T02:26:14;100050.89;;;17.58;100.00
24336;BME280;33098;52.400;16.880;2023-07-29T02:28:40;100051.48;;;17.63;100.00
24336;BME280;33098;52.400;16.880;2023-07-29T02:31:17;100049.87;;;17.69;100.00
24336;BME280;33098;52.400;16.880;2023-07-29T02:33:44;100049.40;;;17.68;100.00
24336;BME280;33098;52.400;16.880;2023-07-29T02:36:12;100052.25;;;17.62;100.00
24336;BME280;33098;52.400;16.880;2023-07-29T02:38:43;100051.77;;;17.60;100.00
24336;BME280;33098;52.400;16.880;2023-07-29T02:41:11;100056.57;;;17.59;100.00
24336;BME280;33098;52.400;16.880;2023-07-29T02:43:48;100060.27;;;17.54;100.00
24336;BME280;33098;52.400;16.880;2023-07-29T02:46:16;100063.34;;;17.45;100.00
24336;BME280;33098;52.400;16.880;2023-07-29T02:48:47;100060.60;;;17.35;100.00
24336;BME280;33098;52.400;16.880;2023-07-29T02:51:14;100059.50;;;17.28;100.00
24336;BME280;33098;52.400;16.880;2023-07-29T02:53:41;100063.52;;;17.28;100.00
24336;BME280;33098;52.400;16.880;2023-07-29T02:56:08;100070.63;;;17.30;100.00
24336;BME280;33098;52.400;16.880;2023-07-29T02:58:36;100069.10;;;17.42;100.00
24336;BME280;33098;52.400;16.880;2023-07-29T03:01:07;100072.73;;;17.53;100.00
24336;BME280;33098;52.400;16.880;2023-07-29T03:03:34;100073.34;;;17.57;100.00
24336;BME280;33098;52.400;16.880;2023-07-29T03:06:03;100071.44;;;17.61;100.00
24336;BME280;33098;52.400;16.880;2023-07-29T03:08:35;100077.04;;;17.57;100.00
24336;BME280;33098;52.400;16.880;2023-07-29T03:11:07;100079.50;;;17.55;100.00
24336;BME280;33098;52.400;16.880;2023-07-29T03:13:38;100077.06;;;17.51;100.00
24336;BME280;33098;52.400;16.880;2023-07-29T03:16:06;100074.80;;;17.47;100.00
24336;BME280;33098;52.400;16.880;2023-07-29T03:18:33;100075.44;;;17.47;100.00
24336;BME280;33098;52.400;16.880;2023-07-29T03:21:01;100071.67;;;17.53;100.00
24336;BME280;33098;52.400;16.880;2023-07-29T03:23:32;100073.66;;;17.50;100.00
24336;BME280;33098;52.400;16.880;2023-07-29T03:26:00;100077.75;;;17.49;100.00
24336;BME280;33098;52.400;16.880;2023-07-29T03:28:32;100077.27;;;17.52;100.00
24336;BME280;33098;52.400;16.880;2023-07-29T03:30:59;100082.16;;;17.48;100.00
24336;BME280;33098;52.400;16.880;2023-07-29T03:33:26;100082.40;;;17.45;100.00
24336;BME280;33098;52.400;16.880;2023-07-29T03:35:53;100080.45;;;17.40;100.00
24336;BME280;33098;52.400;16.880;2023-07-29T03:38:19;100081.15;;;17.40;100.00
24336;BME280;33098;52.400;16.880;2023-07-29T03:40:47;100086.54;;;17.41;100.00
24336;BME280;33098;52.400;16.880;2023-07-29T03:43:16;100088.18;;;17.38;100.00
24336;BME280;33098;52.400;16.880;2023-07-29T03:45:46;100090.94;;;17.37;100.00
24336;BME280;33098;52.400;16.880;2023-07-29T03:48:13;100096.28;;;17.39;100.00
24336;BME280;33098;52.400;16.880;2023-07-29T03:50:41;100091.94;;;17.44;100.00
24336;BME280;33098;52.400;16.880;2023-07-29T03:53:07;100091.73;;;17.51;100.00
24336;BME280;33098;52.400;16.880;2023-07-29T03:55:36;100088.13;;;17.66;100.00
24336;BME280;33098;52.400;16.880;2023-07-29T03:58:03;100086.67;;;17.75;100.00
24336;BME280;33098;52.400;16.880;2023-07-29T04:00:31;100091.09;;;17.74;100.00
24336;BME280;33098;52.400;16.880;2023-07-29T04:02:57;100088.72;;;17.76;100.00
24336;BME280;33098;52.400;16.880;2023-07-29T04:05:24;100089.48;;;17.84;100.00
24336;BME280;33098;52.400;16.880;2023-07-29T04:07:51;100089.70;;;17.90;100.00
24336;BME280;33098;52.400;16.880;2023-07-29T04:10:19;100089.59;;;18.05;100.00
24336;BME280;33098;52.400;16.880;2023-07-29T04:12:50;100090.41;;;18.18;100.00
24336;BME280;33098;52.400;16.880;2023-07-29T04:15:16;100091.08;;;18.28;100.00
24336;BME280;33098;52.400;16.880;2023-07-29T04:17:43;100092.73;;;18.32;100.00
24336;BME280;33098;52.400;16.880;2023-07-29T04:20:10;100097.08;;;18.36;100.00
24336;BME280;33098;52.400;16.880;2023-07-29T04:22:38;100097.04;;;18.46;100.00
24336;BME280;33098;52.400;16.880;2023-07-29T04:25:05;100100.69;;;18.52;100.00
24336;BME280;33098;52.400;16.880;2023-07-29T04:27:35;100102.96;;;18.46;100.00
24336;BME280;33098;52.400;16.880;2023-07-29T04:30:05;100105.08;;;18.37;100.00
24336;BME280;33098;52.400;16.880;2023-07-29T04:32:35;100102.81;;;18.32;100.00
24336;BME280;33098;52.400;16.880;2023-07-29T04:35:03;100101.89;;;18.36;100.00
24336;BME280;33098;52.400;16.880;2023-07-29T04:37:29;100106.48;;;18.45;100.00
24336;BME280;33098;52.400;16.880;2023-07-29T04:39:56;100103.89;;;18.36;100.00
24336;BME280;33098;52.400;16.880;2023-07-29T04:42:29;100103.39;;;18.39;100.00
24336;BME280;33098;52.400;16.880;2023-07-29T04:44:56;100106.53;;;18.37;100.00
24336;BME280;33098;52.400;16.880;2023-07-29T04:47:22;100106.05;;;18.27;100.00
24336;BME280;33098;52.400;16.880;2023-07-29T04:49:50;100106.73;;;18.30;100.00
24336;BME280;33098;52.400;16.880;2023-07-29T04:52:20;100102.39;;;18.29;100.00
24336;BME280;33098;52.400;16.880;2023-07-29T04:54:47;100101.36;;;18.21;100.00
24336;BME280;33098;52.400;16.880;2023-07-29T04:57:13;100100.51;;;18.12;100.00
24336;BME280;33098;52.400;16.880;2023-07-29T04:59:40;100099.90;;;18.18;100.00
24336;BME280;33098;52.400;16.880;2023-07-29T05:02:07;100099.52;;;18.26;100.00
24336;BME280;33098;52.400;16.880;2023-07-29T05:04:33;100101.61;;;18.33;100.00
24336;BME280;33098;52.400;16.880;2023-07-29T05:07:00;100107.44;;;18.38;100.00
24336;BME280;33098;52.400;16.880;2023-07-29T05:09:27;100108.91;;;18.39;100.00
24336;BME280;33098;52.400;16.880;2023-07-29T05:11:53;100108.23;;;18.48;100.00
24336;BME280;33098;52.400;16.880;2023-07-29T05:14:22;100100.16;;;18.57;100.00
24336;BME280;33098;52.400;16.880;2023-07-29T05:16:49;100098.38;;;18.62;100.00
24336;BME280;33098;52.400;16.880;2023-07-29T05:19:16;100101.27;;;18.71;100.00
24336;BME280;33098;52.400;16.880;2023-07-29T05:21:43;100099.52;;;18.73;100.00
24336;BME280;33098;52.400;16.880;2023-07-29T05:24:09;100096.64;;;18.80;100.00
24336;BME280;33098;52.400;16.880;2023-07-29T05:26:36;100093.05;;;18.89;100.00
24336;BME280;33098;52.400;16.880;2023-07-29T05:29:03;100095.77;;;18.99;100.00
24336;BME280;33098;52.400;16.880;2023-07-29T05:31:30;100101.95;;;19.11;100.00
24336;BME280;33098;52.400;16.880;2023-07-29T05:33:58;100099.67;;;19.15;100.00
24336;BME280;33098;52.400;16.880;2023-07-29T05:36:25;100100.20;;;19.22;100.00
24336;BME280;33098;52.400;16.880;2023-07-29T05:38:52;100105.75;;;19.27;100.00
24336;BME280;33098;52.400;16.880;2023-07-29T05:41:18;100111.91;;;19.20;100.00
24336;BME280;33098;52.400;16.880;2023-07-29T05:43:45;100109.79;;;19.18;100.00
24336;BME280;33098;52.400;16.880;2023-07-29T05:46:12;100108.64;;;19.20;100.00
24336;BME280;33098;52.400;16.880;2023-07-29T05:48:39;100109.30;;;19.23;100.00
24336;BME280;33098;52.400;16.880;2023-07-29T05:51:05;100104.58;;;19.32;100.00
24336;BME280;33098;52.400;16.880;2023-07-29T05:53:33;100108.23;;;19.45;100.00
24336;BME280;33098;52.400;16.880;2023-07-29T05:56:03;100109.52;;;19.56;100.00
24336;BME280;33098;52.400;16.880;2023-07-29T05:58:32;100112.28;;;19.59;100.00
24336;BME280;33098;52.400;16.880;2023-07-29T06:00:59;100113.95;;;19.50;100.00
24336;BME280;33098;52.400;16.880;2023-07-29T06:03:26;100117.91;;;19.49;100.00
24336;BME280;33098;52.400;16.880;2023-07-29T06:05:54;100117.82;;;19.48;100.00
24336;BME280;33098;52.400;16.880;2023-07-29T06:08:21;100116.74;;;19.48;100.00
24336;BME280;33098;52.400;16.880;2023-07-29T06:10:48;100116.34;;;19.56;100.00
24336;BME280;33098;52.400;16.880;2023-07-29T06:13:14;100115.60;;;19.50;100.00
24336;BME280;33098;52.400;16.880;2023-07-29T06:15:44;100111.17;;;19.51;100.00
24336;BME280;33098;52.400;16.880;2023-07-29T06:18:11;100113.43;;;19.56;100.00
24336;BME280;33098;52.400;16.880;2023-07-29T06:20:38;100115.80;;;19.59;100.00
24336;BME280;33098;52.400;16.880;2023-07-29T06:23:05;100117.65;;;19.67;100.00
24336;BME280;33098;52.400;16.880;2023-07-29T06:25:32;100121.23;;;19.71;100.00
24336;BME280;33098;52.400;16.880;2023-07-29T06:27:59;100117.81;;;19.81;100.00
24336;BME280;33098;52.400;16.880;2023-07-29T06:30:26;100119.78;;;19.87;100.00
24336;BME280;33098;52.400;16.880;2023-07-29T06:32:53;100117.04;;;19.86;100.00
24336;BME280;33098;52.400;16.880;2023-07-29T06:35:19;100117.96;;;19.79;100.00
24336;BME280;33098;52.400;16.880;2023-07-29T06:37:46;100119.60;;;19.67;100.00
24336;BME280;33098;52.400;16.880;2023-07-29T06:40:13;100116.40;;;19.67;100.00
24336;BME280;33098;52.400;16.880;2023-07-29T06:42:41;100115.08;;;19.78;100.00
24336;BME280;33098;52.400;16.880;2023-07-29T06:45:08;100120.35;;;19.81;100.00
24336;BME280;33098;52.400;16.880;2023-07-29T06:47:35;100119.34;;;19.77;100.00
24336;BME280;33098;52.400;16.880;2023-07-29T06:50:02;100119.19;;;19.78;100.00
24336;BME280;33098;52.400;16.880;2023-07-29T06:52:29;100116.11;;;19.73;100.00
24336;BME280;33098;52.400;16.880;2023-07-29T06:54:58;100113.21;;;19.71;100.00
24336;BME280;33098;52.400;16.880;2023-07-29T06:57:25;100111.34;;;19.77;100.00
24336;BME280;33098;52.400;16.880;2023-07-29T06:59:51;100115.23;;;19.83;100.00
24336;BME280;33098;52.400;16.880;2023-07-29T07:02:20;100114.52;;;19.84;100.00
24336;BME280;33098;52.400;16.880;2023-07-29T07:04:47;100109.01;;;19.85;100.00
24336;BME280;33098;52.400;16.880;2023-07-29T07:07:15;100100.05;;;19.86;100.00
24336;BME280;33098;52.400;16.880;2023-07-29T07:09:42;100092.28;;;19.88;100.00
24336;BME280;33098;52.400;16.880;2023-07-29T07:12:09;100079.33;;;19.95;100.00
24336;BME280;33098;52.400;16.880;2023-07-29T07:14:36;100084.98;;;20.00;100.00
24336;BME280;33098;52.400;16.880;2023-07-29T07:17:04;100085.36;;;20.09;100.00
24336;BME280;33098;52.400;16.880;2023-07-29T07:19:31;100086.10;;;20.16;100.00
24336;BME280;33098;52.400;16.880;2023-07-29T07:21:58;100086.64;;;20.23;100.00
24336;BME280;33098;52.400;16.880;2023-07-29T07:24:24;100091.50;;;20.29;100.00
24336;BME280;33098;52.400;16.880;2023-07-29T07:26:51;100088.81;;;20.34;100.00
24336;BME280;33098;52.400;16.880;2023-07-29T07:29:18;100087.75;;;20.40;100.00
24336;BME280;33098;52.400;16.880;2023-07-29T07:31:50;100081.94;;;20.44;100.00
24336;BME280;33098;52.400;16.880;2023-07-29T07:34:20;100083.05;;;20.46;100.00
24336;BME280;33098;52.400;16.880;2023-07-29T07:36:46;100083.62;;;20.54;100.00
24336;BME280;33098;52.400;16.880;2023-07-29T07:39:13;100079.23;;;20.63;100.00
24336;BME280;33098;52.400;16.880;2023-07-29T07:41:41;100081.19;;;20.68;100.00
24336;BME280;33098;52.400;16.880;2023-07-29T07:44:12;100082.27;;;20.74;100.00
24336;BME280;33098;52.400;16.880;2023-07-29T07:46:41;100086.39;;;20.80;100.00
24336;BME280;33098;52.400;16.880;2023-07-29T07:49:08;100087.75;;;20.85;100.00
24336;BME280;33098;52.400;16.880;2023-07-29T07:51:35;100091.92;;;20.92;100.00
24336;BME280;33098;52.400;16.880;2023-07-29T07:54:01;100085.23;;;20.93;100.00
24336;BME280;33098;52.400;16.880;2023-07-29T07:56:29;100080.56;;;20.98;100.00
24336;BME280;33098;52.400;16.880;2023-07-29T07:58:55;100082.30;;;21.04;100.00
24336;BME280;33098;52.400;16.880;2023-07-29T08:01:22;100079.19;;;21.11;100.00
24336;BME280;33098;52.400;16.880;2023-07-29T08:03:48;100075.89;;;21.17;100.00
24336;BME280;33098;52.400;16.880;2023-07-29T08:06:15;100072.11;;;21.26;100.00
24336;BME280;33098;52.400;16.880;2023-07-29T08:08:42;100066.59;;;21.33;100.00
24336;BME280;33098;52.400;16.880;2023-07-29T08:11:08;100065.84;;;21.40;100.00
24336;BME280;33098;52.400;16.880;2023-07-29T08:13:35;100064.70;;;21.47;100.00
24336;BME280;33098;52.400;16.880;2023-07-29T08:16:02;100060.64;;;21.55;100.00
24336;BME280;33098;52.400;16.880;2023-07-29T08:18:28;100061.31;;;21.67;100.00
24336;BME280;33098;52.400;16.880;2023-07-29T08:20:57;100058.77;;;21.81;100.00
24336;BME280;33098;52.400;16.880;2023-07-29T08:23:31;100056.54;;;21.89;100.00
24336;BME280;33098;52.400;16.880;2023-07-29T08:26:01;100060.67;;;21.92;100.00
24336;BME280;33098;52.400;16.880;2023-07-29T08:28:34;100065.89;;;21.92;100.00
24336;BME280;33098;52.400;16.880;2023-07-29T08:31:01;100058.21;;;21.91;100.00
24336;BME280;33098;52.400;16.880;2023-07-29T08:33:28;100056.47;;;21.94;100.00
24336;BME280;33098;52.400;16.880;2023-07-29T08:35:55;100056.23;;;21.99;100.00
24336;BME280;33098;52.400;16.880;2023-07-29T08:38:22;100056.30;;;22.03;100.00
24336;BME280;33098;52.400;16.880;2023-07-29T08:44:06;100049.08;;;22.15;100.00
24336;BME280;33098;52.400;16.880;2023-07-29T08:46:36;100043.65;;;22.27;100.00
24336;BME280;33098;52.400;16.880;2023-07-29T08:49:04;100047.94;;;22.39;100.00
24336;BME280;33098;52.400;16.880;2023-07-29T08:51:31;100035.94;;;22.47;100.00
24336;BME280;33098;52.400;16.880;2023-07-29T08:53:59;100037.93;;;22.54;100.00
24336;BME280;33098;52.400;16.880;2023-07-29T08:56:27;100041.31;;;22.62;100.00
24336;BME280;33098;52.400;16.880;2023-07-29T08:59:00;100037.66;;;22.66;100.00
24336;BME280;33098;52.400;16.880;2023-07-29T09:01:28;100038.27;;;22.67;100.00
24336;BME280;33098;52.400;16.880;2023-07-29T09:03:57;100037.79;;;22.75;100.00
24336;BME280;33098;52.400;16.880;2023-07-29T09:06:24;100035.60;;;22.84;100.00
24336;BME280;33098;52.400;16.880;2023-07-29T09:08:54;100037.17;;;22.93;100.00
24336;BME280;33098;52.400;16.880;2023-07-29T09:11:25;100036.89;;;23.00;100.00
24336;BME280;33098;52.400;16.880;2023-07-29T09:13:56;100038.00;;;23.08;100.00
24336;BME280;33098;52.400;16.880;2023-07-29T09:16:24;100031.95;;;23.14;100.00
24336;BME280;33098;52.400;16.880;2023-07-29T09:18:52;100031.19;;;23.22;100.00
24336;BME280;33098;52.400;16.880;2023-07-29T09:21:24;100026.55;;;23.32;100.00
24336;BME280;33098;52.400;16.880;2023-07-29T09:23:55;100031.27;;;23.42;100.00
24336;BME280;33098;52.400;16.880;2023-07-29T09:26:26;100027.30;;;23.52;100.00
24336;BME280;33098;52.400;16.880;2023-07-29T09:28:57;100028.15;;;23.64;100.00
24336;BME280;33098;52.400;16.880;2023-07-29T09:31:28;100021.86;;;23.81;100.00
24336;BME280;33098;52.400;16.880;2023-07-29T09:33:59;100023.66;;;23.91;100.00
24336;BME280;33098;52.400;16.880;2023-07-29T09:36:27;100023.08;;;23.99;100.00
24336;BME280;33098;52.400;16.880;2023-07-29T09:38:55;100025.14;;;24.10;100.00
24336;BME280;33098;52.400;16.880;2023-07-29T09:41:28;100028.27;;;24.21;100.00
24336;BME280;33098;52.400;16.880;2023-07-29T09:44:00;100025.55;;;24.33;100.00
24336;BME280;33098;52.400;16.880;2023-07-29T09:46:37;100030.09;;;24.45;99.53
24336;BME280;33098;52.400;16.880;2023-07-29T09:49:07;100028.54;;;24.53;99.04
24336;BME280;33098;52.400;16.880;2023-07-29T09:51:40;100027.59;;;24.61;98.68
24336;BME280;33098;52.400;16.880;2023-07-29T09:54:16;100024.38;;;24.73;98.54
24336;BME280;33098;52.400;16.880;2023-07-29T09:56:48;100027.73;;;24.84;97.50
24336;BME280;33098;52.400;16.880;2023-07-29T09:59:19;100022.52;;;24.99;94.96
24336;BME280;33098;52.400;16.880;2023-07-29T10:01:45;100017.77;;;25.10;91.10
24336;BME280;33098;52.400;16.880;2023-07-29T10:04:13;100017.09;;;25.15;90.11
24336;BME280;33098;52.400;16.880;2023-07-29T10:06:43;100015.08;;;25.15;88.49
24336;BME280;33098;52.400;16.880;2023-07-29T10:09:11;100003.94;;;25.16;88.91
24336;BME280;33098;52.400;16.880;2023-07-29T10:11:39;100007.65;;;25.31;89.93
24336;BME280;33098;52.400;16.880;2023-07-29T10:14:06;100001.49;;;25.42;88.39
24336;BME280;33098;52.400;16.880;2023-07-29T10:16:35;99995.63;;;25.57;88.76
24336;BME280;33098;52.400;16.880;2023-07-29T10:19:04;99992.29;;;25.73;87.19
24336;BME280;33098;52.400;16.880;2023-07-29T10:21:31;99986.86;;;25.89;87.14
24336;BME280;33098;52.400;16.880;2023-07-29T10:24:05;99988.27;;;26.07;85.59
24336;BME280;33098;52.400;16.880;2023-07-29T10:26:34;99981.85;;;26.16;84.34
24336;BME280;33098;52.400;16.880;2023-07-29T10:29:07;99979.27;;;26.16;84.06
24336;BME280;33098;52.400;16.880;2023-07-29T10:31:40;99966.73;;;26.22;84.70
24336;BME280;33098;52.400;16.880;2023-07-29T10:34:10;99964.36;;;26.29;82.76
24336;BME280;33098;52.400;16.880;2023-07-29T10:36:37;99961.34;;;26.47;82.15
24336;BME280;33098;52.400;16.880;2023-07-29T10:39:06;99953.33;;;26.55;79.17
24336;BME280;33098;52.400;16.880;2023-07-29T10:41:57;99952.98;;;26.57;77.16
24336;BME280;33098;52.400;16.880;2023-07-29T10:47:43;99949.98;;;26.54;77.25
24336;BME280;33098;52.400;16.880;2023-07-29T10:50:21;99954.45;;;26.78;79.39
24336;BME280;33098;52.400;16.880;2023-07-29T10:52:51;99948.05;;;27.04;79.09
24336;BME280;33098;52.400;16.880;2023-07-29T10:58:11;99949.80;;;27.21;76.88
24336;BME280;33098;52.400;16.880;2023-07-29T11:00:41;99941.75;;;27.18;76.15
24336;BME280;33098;52.400;16.880;2023-07-29T11:03:08;99942.99;;;27.13;76.40
24336;BME280;33098;52.400;16.880;2023-07-29T11:05:49;99943.79;;;27.12;76.25
24336;BME280;33098;52.400;16.880;2023-07-29T11:08:22;99932.73;;;27.06;76.15
24336;BME280;33098;52.400;16.880;2023-07-29T11:11:07;99925.33;;;27.12;75.88
24336;BME280;33098;52.400;16.880;2023-07-29T11:13:36;99920.00;;;27.23;75.76
24336;BME280;33098;52.400;16.880;2023-07-29T11:16:06;99921.02;;;27.24;73.75
24336;BME280;33098;52.400;16.880;2023-07-29T11:18:35;99919.33;;;27.21;72.98
24336;BME280;33098;52.400;16.880;2023-07-29T11:21:03;99917.98;;;27.19;73.37
24336;BME280;33098;52.400;16.880;2023-07-29T11:23:33;99917.02;;;27.18;73.29
24336;BME280;33098;52.400;16.880;2023-07-29T11:26:01;99907.98;;;27.14;72.83
24336;BME280;33098;52.400;16.880;2023-07-29T11:28:28;99897.43;;;27.08;72.32
24336;BME280;33098;52.400;16.880;2023-07-29T11:30:57;99899.48;;;27.09;72.01
24336;BME280;33098;52.400;16.880;2023-07-29T11:33:25;99898.55;;;27.09;72.09
24336;BME280;33098;52.400;16.880;2023-07-29T11:35:55;99897.19;;;27.07;70.53
24336;BME280;33098;52.400;16.880;2023-07-29T11:38:25;99891.91;;;27.08;71.24
24336;BME280;33098;52.400;16.880;2023-07-29T11:40:58;99886.36;;;27.21;71.80
24336;BME280;33098;52.400;16.880;2023-07-29T11:43:24;99882.69;;;27.49;71.71
24336;BME280;33098;52.400;16.880;2023-07-29T11:45:53;99875.51;;;27.78;70.83
24336;BME280;33098;52.400;16.880;2023-07-29T11:48:31;99876.09;;;28.05;70.08
24336;BME280;33098;52.400;16.880;2023-07-29T11:51:00;99863.41;;;28.32;68.20
24336;BME280;33098;52.400;16.880;2023-07-29T11:53:28;99859.17;;;28.64;66.30
24336;BME280;33098;52.400;16.880;2023-07-29T11:55:57;99859.66;;;29.00;66.97
24336;BME280;33098;52.400;16.880;2023-07-29T11:58:26;99865.73;;;29.15;66.32
24336;BME280;33098;52.400;16.880;2023-07-29T12:00:53;99861.77;;;29.19;65.77
24336;BME280;33098;52.400;16.880;2023-07-29T12:03:20;99860.02;;;29.14;65.28
24336;BME280;33098;52.400;16.880;2023-07-29T12:05:48;99854.63;;;29.16;64.92
24336;BME280;33098;52.400;16.880;2023-07-29T12:08:15;99854.48;;;29.14;64.70
24336;BME280;33098;52.400;16.880;2023-07-29T12:10:43;99850.72;;;29.22;64.87
24336;BME280;33098;52.400;16.880;2023-07-29T12:13:10;99852.57;;;29.21;64.20
24336;BME280;33098;52.400;16.880;2023-07-29T12:15:38;99851.30;;;28.96;63.72
24336;BME280;33098;52.400;16.880;2023-07-29T12:18:06;99850.18;;;28.79;63.63
24336;BME280;33098;52.400;16.880;2023-07-29T12:20:38;99845.70;;;28.72;64.18
24336;BME280;33098;52.400;16.880;2023-07-29T12:23:05;99837.45;;;28.77;64.43
24336;BME280;33098;52.400;16.880;2023-07-29T12:25:35;99834.27;;;28.78;64.52
24336;BME280;33098;52.400;16.880;2023-07-29T12:28:05;99822.05;;;28.89;64.70
24336;BME280;33098;52.400;16.880;2023-07-29T12:30:33;99810.67;;;28.95;63.99
24336;BME280;33098;52.400;16.880;2023-07-29T12:33:00;99805.77;;;29.04;63.81
24336;BME280;33098;52.400;16.880;2023-07-29T12:35:37;99807.75;;;29.21;63.94
24336;BME280;33098;52.400;16.880;2023-07-29T12:38:04;99796.55;;;29.37;63.03
24336;BME280;33098;52.400;16.880;2023-07-29T12:40:31;99788.16;;;29.43;62.66
24336;BME280;33098;52.400;16.880;2023-07-29T12:43:01;99779.66;;;29.57;62.70
24336;BME280;33098;52.400;16.880;2023-07-29T12:45:35;99769.58;;;29.59;61.62
24336;BME280;33098;52.400;16.880;2023-07-29T12:48:03;99779.67;;;29.37;60.28
24336;BME280;33098;52.400;16.880;2023-07-29T12:50:30;99780.17;;;29.21;61.07
24336;BME280;33098;52.400;16.880;2023-07-29T12:52:58;99780.90;;;29.11;61.10
24336;BME280;33098;52.400;16.880;2023-07-29T12:55:25;99774.52;;;28.94;61.38
24336;BME280;33098;52.400;16.880;2023-07-29T12:57:56;99774.17;;;28.74;61.07
24336;BME280;33098;52.400;16.880;2023-07-29T13:00:25;99775.75;;;28.53;61.22